Time;durP1;ratioP1;P1;durP2;ratioP2;P2;SDS_P1;SDS_P2;PMS_P1;PMS_P2;Temp;Humidity;BMP_temperature;BMP_pressure;BME280_temperature;BME280_humidity;BME280_pressure;Samples;Min_cycle;Max_cycle;Signal;HPM_P1;HPM_P2
2021/08/27 00:00:34;;;;;;;;;6.25;4.50;;;;;;;;5049129;27;46321;-86
2021/08/27 00:03:00;;;;;;;;;4.00;3.75;;;;;;;;5043492;27;45600;-85
2021/08/27 00:05:27;;;;;;;;;7.25;4.00;;;;;;;;5046788;27;45543;-85
2021/08/27 00:07:52;;;;;;;;;3.50;2.50;;;;;;;;5040330;27;46220;-85
2021/08/27 00:10:18;;;;;;;;;4.50;4.00;;;;;;;;5043907;27;46120;-84
2021/08/27 00:12:43;;;;;;;;;7.00;4.00;;;;;;;;5047948;27;49624;-84
2021/08/27 00:15:09;;;;;;;;;8.25;4.00;;;;;;;;5040299;27;47034;-85
2021/08/27 00:17:35;;;;;;;;;3.00;3.00;;;;;;;;5044820;27;46109;-86
2021/08/27 00:20:00;;;;;;;;;4.75;3.75;;;;;;;;5047259;27;50397;-86
2021/08/27 00:22:28;;;;;;;;;4.75;3.75;;;;;;;;5050825;27;45552;-85
2021/08/27 00:24:53;;;;;;;;;7.25;4.75;;;;;;;;5050858;27;46179;-85
2021/08/27 00:27:19;;;;;;;;;5.00;5.00;;;;;;;;5042439;27;46829;-84
2021/08/27 00:29:44;;;;;;;;;8.00;6.00;;;;;;;;5049493;27;45670;-85
2021/08/27 00:32:09;;;;;;;;;4.00;4.00;;;;;;;;5048358;27;45578;-85
2021/08/27 00:34:34;;;;;;;;;6.00;5.75;;;;;;;;5041665;27;45631;-86
2021/08/27 00:37:00;;;;;;;;;7.50;5.00;;;;;;;;5048816;27;46066;-84
2021/08/27 00:39:26;;;;;;;;;5.00;4.00;;;;;;;;5044537;27;45583;-85
2021/08/27 00:41:51;;;;;;;;;4.50;4.25;;;;;;;;5047634;27;47269;-85
2021/08/27 00:47:22;;;;;;;;;5.25;4.00;;;;;;;;5038359;27;46183;-86
2021/08/27 00:49:48;;;;;;;;;8.25;4.00;;;;;;;;5043966;27;45803;-86
2021/08/27 00:52:13;;;;;;;;;5.00;4.50;;;;;;;;5044578;27;45530;-86
2021/08/27 00:54:42;;;;;;;;;4.00;4.00;;;;;;;;5045685;27;47196;-85
2021/08/27 00:57:08;;;;;;;;;8.50;4.00;;;;;;;;5039484;27;45497;-85
2021/08/27 00:59:36;;;;;;;;;5.50;4.00;;;;;;;;5046739;27;45784;-86
2021/08/27 01:05:08;;;;;;;;;8.75;4.00;;;;;;;;5032236;27;46209;-85
2021/08/27 01:07:39;;;;;;;;;8.25;5.75;;;;;;;;5048447;27;45748;-85
2021/08/27 01:10:13;;;;;;;;;4.75;4.00;;;;;;;;5042897;27;45889;-85
2021/08/27 01:12:38;;;;;;;;;3.50;3.00;;;;;;;;5046134;27;46714;-85
2021/08/27 01:15:08;;;;;;;;;4.00;4.00;;;;;;;;5042315;27;47858;-87
2021/08/27 01:17:36;;;;;;;;;6.00;4.75;;;;;;;;5043621;27;45594;-89
2021/08/27 01:20:01;;;;;;;;;7.50;5.00;;;;;;;;5063252;22;46456;-94
2021/08/27 01:22:45;;;;;;;;;7.00;5.33;;;;;;;;5047327;28;45477;-95
2021/08/27 01:25:12;;;;;;;;;5.50;4.25;;;;;;;;5033940;28;48527;-94
2021/08/27 01:27:38;;;;;;;;;7.00;5.00;;;;;;;;5050228;28;45658;-92
2021/08/27 01:30:07;;;;;;;;;8.50;5.75;;;;;;;;5044655;28;47607;-96
2021/08/27 01:32:35;;;;;;;;;5.00;5.00;;;;;;;;5048226;28;45387;-93
2021/08/27 01:35:00;;;;;;;;;3.50;3.50;;;;;;;;5050044;28;45584;-93
2021/08/27 01:37:26;;;;;;;;;5.25;4.00;;;;;;;;5047730;28;45421;-94
2021/08/27 01:39:53;;;;;;;;;8.25;5.00;;;;;;;;5033155;28;45565;-94
2021/08/27 01:42:23;;;;;;;;;5.75;5.00;;;;;;;;5034464;28;45469;-93
2021/08/27 01:44:50;;;;;;;;;6.25;4.00;;;;;;;;5048521;28;48430;-93
2021/08/27 01:47:16;;;;;;;;;7.50;5.00;;;;;;;;5049484;28;45814;-92
2021/08/27 01:49:43;;;;;;;;;4.25;4.00;;;;;;;;5048430;28;45542;-92
2021/08/27 01:52:09;;;;;;;;;6.00;4.75;;;;;;;;5050532;28;45593;-93
2021/08/27 01:54:35;;;;;;;;;6.25;4.00;;;;;;;;5049887;28;45553;-93
2021/08/27 01:57:01;;;;;;;;;5.25;4.00;;;;;;;;5048231;28;45577;-93
2021/08/27 01:59:34;;;;;;;;;8.75;5.50;;;;;;;;5046230;28;45552;-95
2021/08/27 02:02:00;;;;;;;;;9.00;5.75;;;;;;;;5048779;28;45546;-92
2021/08/27 02:04:26;;;;;;;;;7.75;5.00;;;;;;;;5030436;28;47308;-93
2021/08/27 02:06:51;;;;;;;;;4.25;3.00;;;;;;;;5047866;28;45718;-93
2021/08/27 02:09:17;;;;;;;;;6.00;5.00;;;;;;;;5048716;28;45470;-93
2021/08/27 02:11:43;;;;;;;;;7.00;6.00;;;;;;;;5032166;28;45938;-93
2021/08/27 02:14:09;;;;;;;;;7.25;5.00;;;;;;;;5032366;28;47345;-94
2021/08/27 02:16:34;;;;;;;;;4.00;3.50;;;;;;;;5046801;28;45699;-95
2021/08/27 02:19:00;;;;;;;;;4.75;4.50;;;;;;;;5036029;28;45524;-93
2021/08/27 02:21:28;;;;;;;;;6.25;5.50;;;;;;;;5034323;28;45321;-94
2021/08/27 02:23:55;;;;;;;;;8.00;5.75;;;;;;;;5048027;22;48522;-86
2021/08/27 02:26:22;;;;;;;;;6.25;5.25;;;;;;;;5002381;28;45483;-85
2021/08/27 02:28:48;;;;;;;;;6.25;5.00;;;;;;;;5003593;28;45553;-86
2021/08/27 02:31:14;;;;;;;;;8.25;5.00;;;;;;;;5006009;28;46537;-86
2021/08/27 02:33:43;;;;;;;;;7.00;5.00;;;;;;;;4986335;28;47382;-85
2021/08/27 02:42:17;;;;;;;;;9.25;5.50;;;;;;;;5036306;22;46247;-86
2021/08/27 02:44:42;;;;;;;;;5.75;5.75;;;;;;;;5020787;28;45550;-86
2021/08/27 02:47:07;;;;;;;;;5.75;4.00;;;;;;;;5022503;28;45543;-85
2021/08/27 02:49:36;;;;;;;;;7.50;5.25;;;;;;;;5018576;28;45912;-86
2021/08/27 02:52:33;;;;;;;;;9.00;5.00;;;;;;;;5023970;28;45651;-86
2021/08/27 02:55:05;;;;;;;;;7.50;5.00;;;;;;;;4953309;28;45891;-85
2021/08/27 02:57:35;;;;;;;;;7.75;4.25;;;;;;;;4967294;28;45912;-87
2021/08/27 03:00:00;;;;;;;;;6.25;5.00;;;;;;;;4952085;28;45859;-86
2021/08/27 03:02:28;;;;;;;;;6.75;6.25;;;;;;;;4950448;28;46822;-89
2021/08/27 03:04:56;;;;;;;;;8.00;6.00;;;;;;;;4965640;28;45651;-86
2021/08/27 03:07:23;;;;;;;;;6.50;6.00;;;;;;;;4962193;28;46144;-86
2021/08/27 03:09:48;;;;;;;;;6.50;5.25;;;;;;;;4949567;28;45673;-86
2021/08/27 03:12:16;;;;;;;;;14.67;8.67;;;;;;;;4964073;28;46967;-87
2021/08/27 03:14:44;;;;;;;;;8.25;7.00;;;;;;;;4964644;28;46094;-90
2021/08/27 03:17:15;;;;;;;;;7.25;5.00;;;;;;;;4970014;28;46235;-88
2021/08/27 03:19:43;;;;;;;;;8.75;3.75;;;;;;;;4968747;28;46605;-90
2021/08/27 03:22:16;;;;;;;;;9.50;4.00;;;;;;;;4966657;28;45652;-88
2021/08/27 03:24:45;;;;;;;;;6.25;5.25;;;;;;;;4972634;28;46287;-89
2021/08/27 03:27:20;;;;;;;;;8.25;5.00;;;;;;;;4948480;28;46054;-89
2021/08/27 03:29:52;;;;;;;;;9.25;5.25;;;;;;;;4957745;28;47416;-88
2021/08/27 03:32:18;;;;;;;;;8.00;6.00;;;;;;;;5015177;28;47108;-90
2021/08/27 03:34:45;;;;;;;;;6.50;4.75;;;;;;;;5021121;28;46502;-90
2021/08/27 03:37:11;;;;;;;;;10.75;6.50;;;;;;;;5024646;28;46615;-88
2021/08/27 03:42:45;;;;;;;;;6.25;5.25;;;;;;;;4980682;28;45720;-88
2021/08/27 03:45:11;;;;;;;;;7.75;5.75;;;;;;;;4983362;28;46636;-87
2021/08/27 03:47:43;;;;;;;;;10.50;6.00;;;;;;;;4974233;28;45540;-89
2021/08/27 03:50:09;;;;;;;;;6.50;6.00;;;;;;;;4983567;28;45600;-89
2021/08/27 03:52:35;;;;;;;;;9.00;5.25;;;;;;;;4980362;28;45675;-85
2021/08/27 03:55:01;;;;;;;;;9.25;5.50;;;;;;;;4983197;28;46254;-88
2021/08/27 03:57:26;;;;;;;;;8.00;6.50;;;;;;;;4984368;28;48406;-90
2021/08/27 03:59:54;;;;;;;;;9.00;5.00;;;;;;;;4982627;28;45801;-88
2021/08/27 04:02:19;;;;;;;;;12.50;5.50;;;;;;;;4972745;28;49860;-89
2021/08/27 04:04:45;;;;;;;;;7.00;6.00;;;;;;;;4969896;28;46288;-86
2021/08/27 04:07:10;;;;;;;;;7.00;5.75;;;;;;;;4986885;28;45649;-90
2021/08/27 04:09:35;;;;;;;;;7.50;5.00;;;;;;;;4984400;28;45956;-89
2021/08/27 04:12:03;;;;;;;;;6.00;5.75;;;;;;;;4970097;28;45526;-88
2021/08/27 04:14:31;;;;;;;;;8.00;5.00;;;;;;;;4970465;28;48600;-92
2021/08/27 04:16:58;;;;;;;;;7.25;5.00;;;;;;;;4969201;28;48671;-87
2021/08/27 04:19:23;;;;;;;;;9.75;5.00;;;;;;;;4983031;28;46156;-85
2021/08/27 04:21:49;;;;;;;;;10.50;6.75;;;;;;;;5006295;28;45541;-85
2021/08/27 04:24:14;;;;;;;;;8.50;5.75;;;;;;;;5001284;28;47527;-84
2021/08/27 04:32:39;;;;;;;;;5.25;4.25;;;;;;;;4887084;28;46287;-86
2021/08/27 04:38:19;;;;;;;;;7.75;6.75;;;;;;;;4837211;29;45704;-85
2021/08/27 04:40:45;;;;;;;;;6.00;5.00;;;;;;;;4865354;29;45006;-84
2021/08/27 04:43:10;;;;;;;;;5.00;4.33;;;;;;;;4854359;29;45604;-84
2021/08/27 04:45:35;;;;;;;;;12.67;6.67;;;;;;;;4854313;29;46462;-84
2021/08/27 04:48:00;;;;;;;;;9.33;8.00;;;;;;;;4849151;29;45697;-84
2021/08/27 04:50:25;;;;;;;;;7.33;6.33;;;;;;;;4887357;22;45703;-93
2021/08/27 04:52:51;;;;;;;;;4.50;4.25;;;;;;;;5035704;28;45963;-92
2021/08/27 04:55:16;;;;;;;;;8.75;6.25;;;;;;;;5033369;28;47013;-90
2021/08/27 04:57:41;;;;;;;;;9.67;7.00;;;;;;;;5022220;28;45483;-92
2021/08/27 05:00:08;;;;;;;;;13.67;6.00;;;;;;;;5037490;28;45550;-91
2021/08/27 05:02:34;;;;;;;;;8.00;7.00;;;;;;;;5038676;28;45364;-92
2021/08/27 05:04:59;;;;;;;;;10.00;6.00;;;;;;;;5033517;28;46557;-92
2021/08/27 05:07:25;;;;;;;;;8.00;6.33;;;;;;;;5015228;28;45647;-92
2021/08/27 05:09:50;;;;;;;;;8.00;6.00;;;;;;;;5037580;28;45585;-92
2021/08/27 05:12:15;;;;;;;;;8.50;8.00;;;;;;;;5034915;28;45544;-92
2021/08/27 05:14:40;;;;;;;;;10.67;6.00;;;;;;;;5018061;28;47206;-90
2021/08/27 05:17:06;;;;;;;;;11.33;8.00;;;;;;;;5035928;28;45396;-92
2021/08/27 05:19:31;;;;;;;;;8.50;8.00;;;;;;;;5036985;28;45567;-92
2021/08/27 05:21:58;;;;;;;;;9.00;6.75;;;;;;;;5019226;28;45445;-92
2021/08/27 05:24:23;;;;;;;;;13.25;6.25;;;;;;;;5020418;28;47531;-91
2021/08/27 05:26:48;;;;;;;;;13.33;8.00;;;;;;;;5040205;28;46703;-91
2021/08/27 05:29:14;;;;;;;;;13.00;7.25;;;;;;;;5037436;28;45446;-92
2021/08/27 05:31:39;;;;;;;;;9.00;6.00;;;;;;;;5018112;28;45347;-92
2021/08/27 05:34:06;;;;;;;;;9.50;7.00;;;;;;;;5018844;28;48412;-92
2021/08/27 05:36:32;;;;;;;;;11.25;9.00;;;;;;;;5036698;28;45599;-92
2021/08/27 05:38:57;;;;;;;;;10.50;8.00;;;;;;;;5036147;28;45497;-91
2021/08/27 05:41:23;;;;;;;;;9.33;7.67;;;;;;;;5037105;28;45493;-92
2021/08/27 05:43:48;;;;;;;;;7.50;7.50;;;;;;;;5035391;28;45455;-92
2021/08/27 05:46:13;;;;;;;;;10.33;6.67;;;;;;;;5019347;28;45402;-92
2021/08/27 05:48:38;;;;;;;;;10.33;7.00;;;;;;;;5034947;28;45312;-92
2021/08/27 05:51:04;;;;;;;;;9.00;8.00;;;;;;;;5019883;28;45549;-92
2021/08/27 05:53:30;;;;;;;;;11.25;6.25;;;;;;;;5032112;28;48531;-91
2021/08/27 05:55:55;;;;;;;;;10.67;7.33;;;;;;;;5053849;22;45557;-85
2021/08/27 05:58:21;;;;;;;;;14.00;10.67;;;;;;;;5027898;28;45593;-85
2021/08/27 06:00:46;;;;;;;;;15.00;8.00;;;;;;;;5031052;28;45465;-85
2021/08/27 06:03:12;;;;;;;;;15.50;8.25;;;;;;;;5022483;28;46849;-85
2021/08/27 06:05:37;;;;;;;;;9.33;8.00;;;;;;;;5042094;28;45549;-85
2021/08/27 06:08:02;;;;;;;;;11.75;9.75;;;;;;;;5027011;28;45493;-85
2021/08/27 06:10:27;;;;;;;;;14.00;8.67;;;;;;;;5025501;28;45615;-85
2021/08/27 06:12:53;;;;;;;;;14.00;9.00;;;;;;;;5042503;28;45583;-85
2021/08/27 06:15:18;;;;;;;;;14.00;11.00;;;;;;;;5032108;28;45565;-86
2021/08/27 06:17:43;;;;;;;;;13.25;12.00;;;;;;;;5036427;28;45529;-86
2021/08/27 06:20:09;;;;;;;;;17.75;10.00;;;;;;;;5034591;28;45379;-86
2021/08/27 06:22:34;;;;;;;;;13.50;13.50;;;;;;;;5026402;28;46225;-87
2021/08/27 06:25:00;;;;;;;;;13.25;11.00;;;;;;;;5040440;28;46280;-87
2021/08/27 06:27:25;;;;;;;;;16.00;10.50;;;;;;;;5032687;28;45604;-86
2021/08/27 06:29:51;;;;;;;;;13.25;9.50;;;;;;;;5019422;28;45599;-87
2021/08/27 06:32:19;;;;;;;;;11.00;11.00;;;;;;;;5024480;28;55004;-86
2021/08/27 06:34:45;;;;;;;;;19.50;12.25;;;;;;;;5031077;28;45802;-86
2021/08/27 06:37:10;;;;;;;;;15.00;12.00;;;;;;;;5036229;28;45712;-86
2021/08/27 06:39:36;;;;;;;;;12.25;9.00;;;;;;;;5018651;28;45500;-87
2021/08/27 06:42:01;;;;;;;;;12.50;10.50;;;;;;;;5019188;28;48075;-88
2021/08/27 06:44:27;;;;;;;;;13.75;8.75;;;;;;;;5038167;28;51416;-87
2021/08/27 06:46:54;;;;;;;;;17.25;13.50;;;;;;;;5033659;28;47749;-90
2021/08/27 06:49:20;;;;;;;;;17.50;12.00;;;;;;;;5029520;28;45426;-87
2021/08/27 06:51:45;;;;;;;;;18.75;11.75;;;;;;;;5017948;28;46944;-87
2021/08/27 06:54:11;;;;;;;;;15.25;11.50;;;;;;;;5033173;28;46016;-88
2021/08/27 06:56:52;;;;;;;;;19.00;12.00;;;;;;;;5024758;28;47601;-86
2021/08/27 06:59:17;;;;;;;;;11.00;10.75;;;;;;;;5033730;28;45530;-86
2021/08/27 07:01:43;;;;;;;;;15.00;12.00;;;;;;;;5042506;28;46127;-85
2021/08/27 07:04:08;;;;;;;;;14.00;12.50;;;;;;;;5032434;28;45512;-86
2021/08/27 07:06:33;;;;;;;;;16.50;12.00;;;;;;;;5032540;28;47748;-85
2021/08/27 07:08:58;;;;;;;;;16.75;12.00;;;;;;;;5016968;28;45531;-87
2021/08/27 07:11:24;;;;;;;;;14.75;10.25;;;;;;;;5041896;28;46380;-85
2021/08/27 07:13:49;;;;;;;;;16.25;10.25;;;;;;;;5024110;28;46097;-85
2021/08/27 07:16:14;;;;;;;;;19.00;11.00;;;;;;;;5037259;28;45680;-84
2021/08/27 07:18:40;;;;;;;;;11.75;8.75;;;;;;;;5033485;28;45858;-84
2021/08/27 07:23:33;;;;;;;;;21.75;10.25;;;;;;;;5164455;22;45425;-92
2021/08/27 07:25:58;;;;;;;;;14.67;10.00;;;;;;;;5028412;28;45466;-94
2021/08/27 07:28:23;;;;;;;;;17.00;11.75;;;;;;;;5051987;28;45441;-92
2021/08/27 07:30:49;;;;;;;;;13.00;12.00;;;;;;;;5034764;28;46973;-91
2021/08/27 07:33:14;;;;;;;;;14.75;11.25;;;;;;;;5042829;22;50740;-84
2021/08/27 07:35:39;;;;;;;;;16.00;10.67;;;;;;;;5035808;28;45874;-85
2021/08/27 07:38:04;;;;;;;;;19.00;13.33;;;;;;;;5030758;28;45667;-84
2021/08/27 07:40:30;;;;;;;;;15.50;11.75;;;;;;;;5040001;28;45597;-87
2021/08/27 07:43:02;;;;;;;;;11.25;10.00;;;;;;;;5040278;28;45449;-87
2021/08/27 07:45:29;;;;;;;;;15.25;10.50;;;;;;;;5053549;22;45567;-93
2021/08/27 07:47:54;;;;;;;;;12.00;11.00;;;;;;;;5100278;27;46340;-91
2021/08/27 07:55:34;;;;;;;;;10.75;9.00;;;;;;;;5204970;22;45512;-86
2021/08/27 07:58:00;;;;;;;;;10.00;8.00;;;;;;;;5047204;27;45437;-86
2021/08/27 08:00:25;;;;;;;;;8.75;7.50;;;;;;;;5010146;28;47130;-87
2021/08/27 08:02:50;;;;;;;;;14.00;10.00;;;;;;;;5018517;28;45524;-87
2021/08/27 08:05:15;;;;;;;;;12.00;9.25;;;;;;;;5011103;28;45524;-87
2021/08/27 08:07:41;;;;;;;;;7.50;6.00;;;;;;;;5004493;28;45505;-87
2021/08/27 08:10:06;;;;;;;;;11.67;6.33;;;;;;;;5017532;28;45393;-86
2021/08/27 08:12:31;;;;;;;;;8.00;6.75;;;;;;;;5045963;28;46210;-86
2021/08/27 08:14:58;;;;;;;;;9.00;6.25;;;;;;;;5008957;28;45683;-86
2021/08/27 08:17:23;;;;;;;;;9.00;6.25;;;;;;;;5021797;28;45563;-85
2021/08/27 08:19:48;;;;;;;;;11.00;8.00;;;;;;;;5011172;28;46491;-85
2021/08/27 08:22:13;;;;;;;;;7.50;6.00;;;;;;;;5022432;28;46138;-84
2021/08/27 08:24:39;;;;;;;;;6.50;6.50;;;;;;;;5008874;28;45667;-85
2021/08/27 08:27:04;;;;;;;;;8.00;7.00;;;;;;;;5007125;28;45481;-84
2021/08/27 08:29:29;;;;;;;;;7.00;5.00;;;;;;;;5027301;28;47257;-86
2021/08/27 08:31:55;;;;;;;;;6.25;5.00;;;;;;;;5013417;28;45494;-85
2021/08/27 08:34:20;;;;;;;;;5.00;4.25;;;;;;;;5030318;28;45770;-86
2021/08/27 08:36:45;;;;;;;;;5.75;4.00;;;;;;;;5037641;28;45759;-85
2021/08/27 08:39:10;;;;;;;;;6.00;3.00;;;;;;;;5019226;28;47250;-85
2021/08/27 08:41:36;;;;;;;;;4.50;3.00;;;;;;;;5011067;28;45823;-84
2021/08/27 08:44:01;;;;;;;;;4.75;3.25;;;;;;;;5015765;28;45663;-84
2021/08/27 08:46:27;;;;;;;;;10.50;5.00;;;;;;;;5013100;28;45589;-85
2021/08/27 08:48:54;;;;;;;;;5.00;4.00;;;;;;;;5022073;28;49446;-84
2021/08/27 08:51:23;;;;;;;;;7.00;5.00;;;;;;;;5016646;28;45967;-84
2021/08/27 08:53:49;;;;;;;;;6.25;4.25;;;;;;;;5048946;28;45660;-85
2021/08/27 08:56:15;;;;;;;;;5.00;3.75;;;;;;;;5016874;28;45461;-84
2021/08/27 08:58:40;;;;;;;;;6.75;4.50;;;;;;;;5020293;28;46939;-84
2021/08/27 09:01:05;;;;;;;;;5.75;4.75;;;;;;;;5010459;28;45448;-85
2021/08/27 09:03:30;;;;;;;;;9.00;5.00;;;;;;;;5044703;27;45578;-84
2021/08/27 09:05:56;;;;;;;;;7.50;3.25;;;;;;;;5008255;28;45562;-84
2021/08/27 09:08:32;;;;;;;;;7.00;4.25;;;;;;;;5010592;28;46713;-84
2021/08/27 09:10:57;;;;;;;;;5.50;5.00;;;;;;;;5017099;28;45890;-86
2021/08/27 09:13:28;;;;;;;;;6.00;5.00;;;;;;;;5040418;28;45508;-84
2021/08/27 09:16:11;;;;;;;;;11.25;6.25;;;;;;;;5040365;28;46705;-88
2021/08/27 09:18:40;;;;;;;;;9.50;4.50;;;;;;;;5015452;28;46882;-87
2021/08/27 09:21:24;;;;;;;;;5.00;5.00;;;;;;;;5013519;28;45328;-86
2021/08/27 09:23:50;;;;;;;;;9.50;6.25;;;;;;;;5025229;28;45549;-86
2021/08/27 09:26:35;;;;;;;;;6.75;5.00;;;;;;;;5017273;28;45535;-87
2021/08/27 09:29:00;;;;;;;;;7.00;4.75;;;;;;;;5030395;28;48641;-86
2021/08/27 09:31:32;;;;;;;;;6.00;4.00;;;;;;;;5016732;28;45635;-86
2021/08/27 09:33:58;;;;;;;;;7.50;6.50;;;;;;;;5017562;28;45434;-87
2021/08/27 09:36:23;;;;;;;;;7.00;4.25;;;;;;;;5023631;28;56437;-86
2021/08/27 09:38:58;;;;;;;;;11.00;5.75;;;;;;;;5028623;28;47077;-86
2021/08/27 09:41:23;;;;;;;;;5.00;3.00;;;;;;;;5009554;28;45499;-86
2021/08/27 09:43:54;;;;;;;;;7.75;3.25;;;;;;;;5047387;27;45541;-86
2021/08/27 09:46:29;;;;;;;;;3.25;3.00;;;;;;;;5021296;28;45457;-86
2021/08/27 09:48:54;;;;;;;;;3.00;2.00;;;;;;;;5049781;28;47316;-86
2021/08/27 09:51:39;;;;;;;;;4.50;3.00;;;;;;;;5016516;28;45489;-87
2021/08/27 09:54:04;;;;;;;;;3.00;2.00;;;;;;;;5014469;28;46099;-86
2021/08/27 09:56:42;;;;;;;;;3.00;2.00;;;;;;;;5019403;28;46025;-86
2021/08/27 09:59:07;;;;;;;;;4.50;2.00;;;;;;;;5033662;28;47489;-86
2021/08/27 10:01:43;;;;;;;;;2.00;2.00;;;;;;;;5011379;28;45490;-87
2021/08/27 10:07:24;;;;;;;;;1.00;1.00;;;;;;;;5041167;22;46286;-88
2021/08/27 10:09:49;;;;;;;;;1.00;1.00;;;;;;;;5057344;28;46568;-87
2021/08/27 10:12:14;;;;;;;;;2.33;1.00;;;;;;;;5047248;27;45548;-87
2021/08/27 10:14:43;;;;;;;;;1.00;1.00;;;;;;;;5047116;28;45545;-86
2021/08/27 10:17:09;;;;;;;;;1.50;1.00;;;;;;;;5054465;28;45602;-85
2021/08/27 10:19:34;;;;;;;;;5.50;3.75;;;;;;;;5042422;28;47502;-86
2021/08/27 10:22:00;;;;;;;;;2.00;2.00;;;;;;;;5048937;28;45456;-86
2021/08/27 10:24:25;;;;;;;;;4.00;2.00;;;;;;;;5053212;28;45563;-86
2021/08/27 10:26:50;;;;;;;;;3.00;2.00;;;;;;;;5036626;28;45448;-86
2021/08/27 10:29:16;;;;;;;;;1.75;1.75;;;;;;;;5058162;27;45782;-86
2021/08/27 10:31:45;;;;;;;;;2.25;1.75;;;;;;;;5042103;28;45970;-85
2021/08/27 10:34:12;;;;;;;;;1.00;1.00;;;;;;;;5049376;28;45647;-84
2021/08/27 10:36:38;;;;;;;;;1.00;1.00;;;;;;;;5049215;28;45515;-85
2021/08/27 10:39:03;;;;;;;;;1.00;1.00;;;;;;;;5030494;28;48123;-85
2021/08/27 10:41:32;;;;;;;;;0.75;0.75;;;;;;;;5036005;28;45456;-84
2021/08/27 10:47:26;;;;;;;;;1.00;1.00;;;;;;;;5005624;28;45382;-86
2021/08/27 10:49:52;;;;;;;;;1.25;1.25;;;;;;;;5017064;28;45962;-84
2021/08/27 10:55:02;;;;;;;;;3.00;1.50;;;;;;;;5741696;22;45660;-85
2021/08/27 10:57:27;;;;;;;;;3.00;1.75;;;;;;;;5057723;27;45047;-85
2021/08/27 11:02:55;;;;;;;;;3.50;1.00;;;;;;;;5091374;22;45908;-86
2021/08/27 11:05:34;;;;;;;;;2.25;2.25;;;;;;;;5050729;28;46233;-86
2021/08/27 11:08:03;;;;;;;;;3.00;3.00;;;;;;;;5061037;27;45590;-85
2021/08/27 11:10:29;;;;;;;;;1.75;1.75;;;;;;;;5064913;27;45944;-85
2021/08/27 11:12:58;;;;;;;;;1.00;1.00;;;;;;;;5059057;27;45524;-86
2021/08/27 11:15:28;;;;;;;;;2.00;1.00;;;;;;;;5066218;27;45734;-84
2021/08/27 11:18:16;;;;;;;;;4.00;2.00;;;;;;;;5067537;27;45735;-86
2021/08/27 11:20:44;;;;;;;;;1.75;1.75;;;;;;;;5056131;27;47305;-89
2021/08/27 11:23:10;;;;;;;;;2.00;1.00;;;;;;;;5061112;27;45633;-86
2021/08/27 11:25:39;;;;;;;;;5.75;1.00;;;;;;;;5085383;22;45464;-95
2021/08/27 11:31:06;;;;;;;;;1.00;1.00;;;;;;;;5376943;22;45549;-91
2021/08/27 11:33:40;;;;;;;;;2.25;1.75;;;;;;;;5048849;27;46346;-90
2021/08/27 11:36:05;;;;;;;;;3.50;2.50;;;;;;;;5056603;27;45893;-91
2021/08/27 11:38:33;;;;;;;;;2.25;2.25;;;;;;;;5069020;27;45563;-88
2021/08/27 11:49:22;;;;;;;;;1.25;1.25;;;;;;;;5230978;22;45986;-89
2021/08/27 11:52:05;;;;;;;;;3.00;2.00;;;;;;;;5047634;27;47303;-89
2021/08/27 11:54:31;;;;;;;;;2.00;2.00;;;;;;;;5065399;27;45547;-92
2021/08/27 11:57:20;;;;;;;;;2.00;2.00;;;;;;;;5043663;28;45764;-93
2021/08/27 12:05:54;;;;;;;;;4.25;2.25;;;;;;;;5078621;22;45567;-91
2021/08/27 12:08:19;;;;;;;;;0.00;0.00;;;;;;;;5050509;28;45514;-90
2021/08/27 12:10:44;;;;;;;;;1.25;1.25;;;;;;;;5049380;28;45545;-91
2021/08/27 12:19:10;;;;;;;;;1.75;1.00;;;;;;;;5064852;22;45642;-91
2021/08/27 12:27:33;;;;;;;;;2.00;2.00;;;;;;;;5078815;22;58213;-92
2021/08/27 12:30:05;;;;;;;;;2.75;2.75;;;;;;;;5037879;28;45809;-91
2021/08/27 12:38:54;;;;;;;;;;;;;;;;;;;;;
2021/08/27 12:56:19;;;;;;;;;6.00;4.00;;;;;;;;5082174;22;45323;-93
2021/08/27 12:58:49;;;;;;;;;6.75;3.25;;;;;;;;5072167;28;46696;-95
2021/08/27 13:01:21;;;;;;;;;6.00;3.75;;;;;;;;5056298;28;45435;-95
2021/08/27 13:03:51;;;;;;;;;1.50;1.50;;;;;;;;5058678;28;45469;-96
2021/08/27 13:06:28;;;;;;;;;3.00;3.00;;;;;;;;5076722;28;45495;-94
2021/08/27 13:09:00;;;;;;;;;4.00;1.25;;;;;;;;5072257;27;46177;-95
2021/08/27 13:11:26;;;;;;;;;2.75;2.50;;;;;;;;5069795;27;45334;-96
2021/08/27 13:13:52;;;;;;;;;3.00;1.50;;;;;;;;5067642;28;45476;-96
2021/08/27 13:16:17;;;;;;;;;2.50;1.75;;;;;;;;5072443;27;45393;-96
2021/08/27 13:18:46;;;;;;;;;4.00;2.50;;;;;;;;5070603;27;46234;-94
2021/08/27 13:21:12;;;;;;;;;4.00;1.50;;;;;;;;5068796;27;45628;-95
2021/08/27 13:23:37;;;;;;;;;1.50;1.50;;;;;;;;5074009;28;45489;-93
2021/08/27 13:26:07;;;;;;;;;2.25;2.25;;;;;;;;5064694;27;45476;-95
2021/08/27 13:28:32;;;;;;;;;2.00;2.00;;;;;;;;5069506;27;46366;-93
2021/08/27 13:30:58;;;;;;;;;2.00;2.00;;;;;;;;5070303;27;44808;-96
2021/08/27 13:33:23;;;;;;;;;2.00;0.67;;;;;;;;5054727;28;45433;-96
2021/08/27 13:35:49;;;;;;;;;2.50;2.00;;;;;;;;5053758;28;45536;-93
2021/08/27 13:38:14;;;;;;;;;3.00;1.75;;;;;;;;5059245;28;47242;-96
2021/08/27 13:40:39;;;;;;;;;3.50;1.75;;;;;;;;5078214;27;45489;-95
2021/08/27 13:43:05;;;;;;;;;1.67;1.67;;;;;;;;5080125;28;45443;-96
2021/08/27 13:45:31;;;;;;;;;1.75;1.75;;;;;;;;5070919;28;44848;-95
2021/08/27 13:47:56;;;;;;;;;4.00;2.50;;;;;;;;5071605;27;45324;-94
2021/08/27 13:50:21;;;;;;;;;2.00;2.00;;;;;;;;5085975;28;45717;-94
2021/08/27 13:59:04;;;;;;;;;;;;;;;;;;;;;
2021/08/27 14:07:08;;;;;;;;;3.00;2.00;;;;;;;;5447322;22;44960;-93
2021/08/27 14:09:33;;;;;;;;;4.00;2.00;;;;;;;;5054066;28;47149;-95
2021/08/27 14:11:59;;;;;;;;;3.00;3.00;;;;;;;;5087293;27;45378;-95
2021/08/27 14:14:24;;;;;;;;;4.00;3.00;;;;;;;;5083765;27;45287;-96
2021/08/27 14:16:49;;;;;;;;;5.00;3.33;;;;;;;;5063515;28;45641;-96
2021/08/27 14:19:14;;;;;;;;;2.33;2.33;;;;;;;;5065129;28;47559;-96
2021/08/27 14:21:39;;;;;;;;;1.00;1.00;;;;;;;;5055837;28;45469;-96
2021/08/27 14:24:05;;;;;;;;;2.33;2.33;;;;;;;;5046586;27;45386;-96
2021/08/27 14:26:30;;;;;;;;;4.33;3.00;;;;;;;;5068572;27;45276;-96
2021/08/27 14:28:55;;;;;;;;;2.00;2.00;;;;;;;;5102253;22;47045;-88
2021/08/27 14:37:10;;;;;;;;;2.75;2.00;;;;;;;;5038643;22;45521;-88
2021/08/27 14:48:16;;;;;;;;;2.75;2.50;;;;;;;;5228332;22;45501;-96
2021/08/27 14:50:42;;;;;;;;;3.67;3.00;;;;;;;;5105183;27;46397;-93
2021/08/27 14:53:07;;;;;;;;;6.00;3.00;;;;;;;;5096132;27;45505;-96
2021/08/27 14:55:33;;;;;;;;;3.67;3.67;;;;;;;;5083399;27;45445;-94
2021/08/27 14:57:58;;;;;;;;;4.00;3.00;;;;;;;;5092079;27;45446;-96
2021/08/27 15:00:23;;;;;;;;;4.25;3.25;;;;;;;;5081817;27;47405;-96
2021/08/27 15:02:49;;;;;;;;;4.50;3.25;;;;;;;;5103108;27;45307;-96
2021/08/27 15:05:14;;;;;;;;;3.00;3.00;;;;;;;;5081231;27;45723;-96
2021/08/27 15:07:39;;;;;;;;;4.67;3.33;;;;;;;;5100583;27;45491;-95
2021/08/27 15:10:05;;;;;;;;;3.33;2.33;;;;;;;;5099491;27;46281;-96
2021/08/27 15:12:30;;;;;;;;;3.75;2.00;;;;;;;;5101406;27;45300;-95
2021/08/27 15:17:59;;;;;;;;;1.50;1.50;;;;;;;;5058532;28;45491;-92
2021/08/27 15:35:27;;;;;;;;;3.25;3.00;;;;;;;;5274194;22;45372;-94
2021/08/27 15:37:52;;;;;;;;;4.50;3.00;;;;;;;;5796823;22;44894;-95
2021/08/27 15:40:18;;;;;;;;;3.00;3.00;;;;;;;;5074434;27;45521;-94
2021/08/27 15:42:43;;;;;;;;;2.25;2.25;;;;;;;;5069589;27;46622;-94
2021/08/27 15:45:09;;;;;;;;;1.00;1.00;;;;;;;;5072816;27;45446;-93
2021/08/27 15:47:34;;;;;;;;;2.75;2.00;;;;;;;;5070647;27;45377;-96
2021/08/27 15:50:00;;;;;;;;;1.25;1.25;;;;;;;;5068627;27;45551;-94
2021/08/27 15:52:25;;;;;;;;;3.50;2.25;;;;;;;;5081261;27;47088;-92
2021/08/27 15:54:51;;;;;;;;;3.25;1.00;;;;;;;;5092596;22;44836;-94
2021/08/27 15:57:16;;;;;;;;;5.00;1.25;;;;;;;;5097158;22;45748;-94
2021/08/27 15:59:41;;;;;;;;;1.67;1.67;;;;;;;;5071116;27;45480;-96
2021/08/27 16:02:06;;;;;;;;;1.00;1.00;;;;;;;;5066367;27;46578;-93
2021/08/27 16:04:32;;;;;;;;;2.50;2.50;;;;;;;;5063476;27;45480;-93
2021/08/27 16:06:57;;;;;;;;;1.67;1.33;;;;;;;;5069335;27;45626;-94
2021/08/27 16:09:22;;;;;;;;;1.00;1.00;;;;;;;;5070875;27;45790;-96
2021/08/27 16:17:03;;;;;;;;;3.50;1.50;;;;;;;;5271899;22;47031;-90
2021/08/27 16:37:38;;;;;;;;;1.50;0.50;;;;;;;;5093119;22;46429;-91
2021/08/27 16:40:06;;;;;;;;;1.50;1.50;;;;;;;;5026971;28;45527;-88
2021/08/27 16:42:31;;;;;;;;;1.00;1.00;;;;;;;;5043387;28;45560;-85
2021/08/27 16:44:59;;;;;;;;;3.25;2.00;;;;;;;;5015620;28;45605;-88
2021/08/27 16:47:24;;;;;;;;;1.50;1.50;;;;;;;;5048648;28;45582;-88
2021/08/27 16:49:52;;;;;;;;;0.75;0.50;;;;;;;;5012617;28;45884;-87
2021/08/27 16:54:45;;;;;;;;;3.75;1.00;;;;;;;;5085140;27;45350;-94
2021/08/27 16:57:10;;;;;;;;;3.00;2.00;;;;;;;;5099035;27;45401;-92
2021/08/27 16:59:36;;;;;;;;;2.00;1.50;;;;;;;;5096535;27;45384;-93
2021/08/27 17:02:01;;;;;;;;;3.25;1.50;;;;;;;;5078850;27;45442;-93
2021/08/27 17:04:26;;;;;;;;;1.50;1.50;;;;;;;;5099196;27;45463;-92
2021/08/27 17:06:51;;;;;;;;;3.75;3.75;;;;;;;;5101139;27;45618;-95
2021/08/27 17:09:16;;;;;;;;;0.33;0.33;;;;;;;;5098464;27;53093;-93
2021/08/27 17:11:47;;;;;;;;;1.33;1.00;;;;;;;;5088416;22;45721;-88
2021/08/27 17:14:12;;;;;;;;;3.00;1.00;;;;;;;;5018444;28;48006;-84
2021/08/27 17:16:43;;;;;;;;;1.50;1.50;;;;;;;;5013227;28;53580;-87
2021/08/27 17:19:08;;;;;;;;;2.00;1.25;;;;;;;;5027345;28;45508;-85
2021/08/27 17:21:33;;;;;;;;;4.00;2.75;;;;;;;;4239130;22;45974;-87
2021/08/27 17:23:59;;;;;;;;;1.50;1.50;;;;;;;;5029765;28;45616;-87